Home > Products > Valid Products > TAF

000
FTUS45 KPUB 312320
TAFPUB
TAF
KPUB 312320Z 0100/0124 VRB06KT P6SM FEW150 SCT250
     FM010400 29006KT P6SM SCT150 SCT200
     FM011600 26008KT P6SM BKN150
     FM012100 23012G22KT P6SM SCT130 SCT200=



000
FTUS45 KPUB 312320
TAFCOS
TAF
KCOS 312320Z 0100/0124 16008KT P6SM FEW140 SCT250
     FM010400 03007KT P6SM SCT140 SCT200
     FM011600 18008KT P6SM BKN140
     FM011900 20014G24KT P6SM SCT120 SCT200=



000
FTUS45 KPUB 312320
TAFALS
TAF
KALS 312320Z 0100/0124 18012KT P6SM SCT140 BKN200
     FM010300 16008KT P6SM SCT140 BKN200
     FM011400 18012KT P6SM BKN140
     FM011800 21015G25KT P6SM SCT120 BKN200=



000
FTUS45 KPUB 311746
TAFALS
TAF
KALS 311746Z 3118/0118 22006KT P6SM SCT200
     FM312000 21011KT P6SM FEW140 BKN200
     FM010100 17007KT P6SM SCT140 BKN200
     FM010600 17008KT P6SM SCT100 BKN140=



000
FTUS45 KPUB 311746
TAFCOS
TAF
KCOS 311746Z 3118/0118 16011KT P6SM FEW140 SCT200
     FM312000 17012G22KT P6SM FEW140 SCT200
     FM010100 15008KT P6SM FEW140 SCT200
     FM010300 08008KT P6SM SCT140 SCT200
     FM010600 02007KT P6SM BKN140=



000
FTUS45 KPUB 311746
TAFPUB
TAF
KPUB 311746Z 3118/0118 13009KT P6SM FEW150 SCT200
     FM010200 06006KT P6SM SCT150 SCT200
     FM010900 30006KT P6SM BKN150=



000
FTUS45 KPUB 311127
TAFALS
TAF
KALS 311127Z 3112/0112 VRB05KT P6SM SCT200
     FM311700 17006KT P6SM SCT200
     FM312000 21011KT P6SM FEW140 BKN200
     FM010100 17007KT P6SM SCT140 BKN200
     FM010600 17008KT P6SM SCT100 BKN140=



000
FTUS45 KPUB 311127
TAFCOS
TAF
KCOS 311127Z 3112/0112 14007KT P6SM SCT250
     FM311700 17011KT P6SM FEW140 SCT200
     FM312000 17012G22KT P6SM FEW140 SCT200
     FM010100 15008KT P6SM FEW140 SCT200
     FM010300 08008KT P6SM SCT140 SCT200
     FM010600 02007KT P6SM BKN140=



000
FTUS45 KPUB 311127
TAFPUB
TAF
KPUB 311127Z 3112/0112 03006KT P6SM FEW250
     FM311700 09007KT P6SM SCT200
     FM311900 13009KT P6SM FEW150 SCT200
     FM010200 06006KT P6SM SCT150 SCT200
     FM010900 30006KT P6SM BKN150=



000
FTUS45 KPUB 310522
TAFCOS
TAF
KCOS 310522Z 3106/0106 11006KT P6SM FEW200
     FM310800 06007KT P6SM FEW200
     FM311800 16014KT P6SM FEW140 SCT200
      TEMPO 3119/3123 17015G25KT
     FM010100 15008KT P6SM SCT200
     FM010300 08008KT P6SM SCT200=



000
FTUS45 KPUB 310522
TAFALS
TAF
KALS 310522Z 3106/0106 VRB05KT P6SM FEW200
     FM311700 17006KT P6SM FEW200
     FM312000 21010KT P6SM FEW140 SCT200
     FM010100 17007KT P6SM SCT200=



000
FTUS45 KPUB 310522
TAFPUB
TAF
KPUB 310522Z 3106/0106 VRB06KT P6SM FEW200
     FM311900 13009KT P6SM FEW150 SCT200
     FM010200 06006KT P6SM SCT200=



000
FTUS45 KPUB 302332
TAFCOS
TAF
KCOS 302332Z 3100/3124 16008KT P6SM FEW200
     FM310300 13006KT P6SM FEW200
     FM311800 16014KT P6SM FEW140 SCT200=



000
FTUS45 KPUB 302332
TAFALS
TAF
KALS 302332Z 3100/3124 VRB05KT P6SM FEW200
     FM311700 17006KT P6SM FEW200
     FM312000 21010KT P6SM FEW140 SCT200=



000
FTUS45 KPUB 302332
TAFPUB
TAF
KPUB 302332Z 3100/3124 10008KT P6SM FEW200
     FM310300 VRB06KT P6SM FEW200
     FM311900 13012KT P6SM FEW150 SCT200=



000
FTUS45 KPUB 301744
TAFCOS
TAF
KCOS 301744Z 3018/3118 VRB05KT P6SM SKC
     FM301900 15010KT P6SM FEW150
     FM310200 10005KT P6SM FEW250=



000
FTUS45 KPUB 301744
TAFALS
TAF
KALS 301744Z 3018/3118 VRB06KT P6SM SKC=



000
FTUS45 KPUB 301744
TAFPUB
TAF
KPUB 301744Z 3018/3118 VRB06KT P6SM SKC
     FM301900 11007KT P6SM FEW150
     FM310200 06006KT P6SM FEW250=



000
FTUS45 KPUB 301744
TAFALS
TAF
KALS 301744Z 3018/3118 VRB06KT P6SM SKC=



000
FTUS45 KPUB 301744
TAFCOS
TAF
KCOS 301744Z 3018/3118 VRB05KT P6SM SKC
     FM301900 15010KT P6SM FEW150
     FM310200 10005KT P6SM FEW250=



000
FTUS45 KPUB 301744
TAFPUB
TAF
KPUB 301744Z 3018/3118 VRB06KT P6SM SKC
     FM301900 11007KT P6SM FEW150
     FM310200 06006KT P6SM FEW250=



000
FTUS45 KPUB 301120
TAFALS
TAF
KALS 301120Z 3012/3112 VRB06KT P6SM SKC=



000
FTUS45 KPUB 301120
TAFPUB
TAF
KPUB 301120Z 3012/3112 VRB06KT P6SM SKC
     FM301900 11007KT P6SM FEW150
     FM310200 06006KT P6SM FEW250=



000
FTUS45 KPUB 301120
TAFCOS
TAF
KCOS 301120Z 3012/3112 35007KT P6SM SKC
     FM301900 15010KT P6SM FEW150
     FM310200 10005KT P6SM FEW250=



000
FTUS45 KPUB 300521
TAFPUB
TAF
KPUB 300521Z 3006/3106 VRB06KT P6SM SKC
     FM301900 11007KT P6SM SCT150
     FM310200 06006KT P6SM SCT250=



000
FTUS45 KPUB 300521
TAFALS
TAF
KALS 300521Z 3006/3106 VRB06KT P6SM FEW250=



000
FTUS45 KPUB 300521
TAFCOS
TAF
KCOS 300521Z 3006/3106 35007KT P6SM SKC
     FM301900 15010KT P6SM SCT150
     FM310200 10005KT P6SM SCT250
     FM310400 36006KT P6SM SCT250=



000
FTUS45 KPUB 292321
TAFALS
TAF
KALS 292321Z 3000/3024 VRB06KT P6SM SKC
     FM300400 VRB05KT P6SM FEW150=



000
FTUS45 KPUB 292321
TAFCOS
TAF
KCOS 292321Z 3000/3024 VRB05KT P6SM SKC
     FM300200 03005KT P6SM SKC
     FM300500 35007KT P6SM SKC
     FM301900 15010KT P6SM SCT150=



000
FTUS45 KPUB 292321
TAFPUB
TAF
KPUB 292321Z 3000/3024 12009KT P6SM SKC
     FM300100 VRB06KT P6SM SKC
     FM300500 VRB06KT P6SM SKC
     FM301500 VRB05KT P6SM SKC
     FM301900 11007KT P6SM SCT150=



000
FTUS45 KPUB 292122 AAA
TAFPUB
TAF AMD
KPUB 292122Z 2921/3018 15009KT P6SM SKC
     FM300100 VRB06KT P6SM SKC
     FM300500 VRB06KT P6SM SCT150
     FM301500 VRB05KT P6SM SKC=



000
FTUS45 KPUB 291720
TAFALS
TAF
KALS 291720Z 2918/3018 VRB06KT P6SM SKC
     FM300400 VRB05KT P6SM FEW150=



000
FTUS45 KPUB 291720
TAFPUB
TAF
KPUB 291720Z 2918/3018 VRB06KT P6SM SKC
     FM300500 VRB06KT P6SM SCT150
     FM301500 VRB05KT P6SM SKC=



000
FTUS45 KPUB 291720
TAFCOS
TAF
KCOS 291720Z 2918/3018 14008KT P6SM SKC
     FM300200 VRB05KT P6SM FEW150
     FM300500 35008KT P6SM SCT150=



000
FTUS45 KPUB 291120
TAFCOS
TAF
KCOS 291120Z 2912/3012 02006KT P6SM SKC
     FM291700 15009KT P6SM FEW140
     FM300300 01007KT P6SM FEW200=



000
FTUS45 KPUB 291120
TAFALS
TAF
KALS 291120Z 2912/3012 VRB06KT P6SM SKC=



000
FTUS45 KPUB 291120
TAFPUB
TAF
KPUB 291120Z 2912/3012 VRB06KT P6SM SKC
     FM292000 13007KT P6SM FEW150
     FM300300 VRB06KT P6SM FEW200=



000
FTUS45 KPUB 290520
TAFPUB
TAF
KPUB 290520Z 2906/3006 VRB06KT P6SM SKC
     FM292000 13007KT P6SM FEW150
     FM300300 VRB06KT P6SM FEW200=



000
FTUS45 KPUB 290520
TAFALS
TAF
KALS 290520Z 2906/3006 VRB06KT P6SM SKC=



000
FTUS45 KPUB 290520
TAFCOS
TAF
KCOS 290520Z 2906/3006 01006KT P6SM SKC
     FM291700 15009KT P6SM FEW140
     FM300300 01007KT P6SM FEW200=



    US Dept of Commerce
    National Oceanic and Atmospheric Administration
    National Weather Service
    1325 East West Highway
    Silver Spring, MD 20910
    Page Author: NWS Internet Services Team
Disclaimer
Information Quality
Credits
Glossary
Privacy Policy
Freedom of Information Act (FOIA)
About Us
Career Opportunities